Time;durP1;ratioP1;P1;durP2;ratioP2;P2;SDS_P1;SDS_P2;PMS_P1;PMS_P2;Temp;Humidity;BMP_temperature;BMP_pressure;BME280_temperature;BME280_humidity;BME280_pressure;Samples;Min_cycle;Max_cycle;Signal;HPM_P1;HPM_P2
2023/03/11 00:02:21;;;;;;;;;5.00;3.00;;;;;8.93;49.12;100377.09;5012753;28;44905;-67
2023/03/11 00:04:47;;;;;;;;;3.50;3.50;;;;;9.03;49.70;100404.91;5013150;28;45497;-66
2023/03/11 00:07:13;;;;;;;;;5.50;3.25;;;;;9.04;50.17;100404.94;5012831;28;45117;-66
2023/03/11 00:09:38;;;;;;;;;5.00;5.00;;;;;9.07;49.36;100419.19;5012143;28;45196;-66
2023/03/11 00:12:04;;;;;;;;;7.00;5.00;;;;;8.96;50.36;100403.84;4992617;28;45288;-65
2023/03/11 00:14:29;;;;;;;;;5.50;4.50;;;;;9.01;50.67;100423.50;5011694;28;45657;-63
2023/03/11 00:16:55;;;;;;;;;7.50;7.50;;;;;8.99;50.31;100418.97;5007197;28;45259;-65
2023/03/11 00:19:20;;;;;;;;;7.50;6.25;;;;;9.02;50.77;100440.38;5008851;28;45049;-66
2023/03/11 00:21:46;;;;;;;;;51.50;41.00;;;;;9.05;50.90;100432.47;5007285;28;45124;-63
2023/03/11 00:24:11;;;;;;;;;18.25;13.00;;;;;9.12;50.77;100429.09;5010308;28;46062;-67
2023/03/11 00:26:37;;;;;;;;;16.50;13.50;;;;;9.15;50.09;100420.31;5011293;28;45136;-64
2023/03/11 00:29:02;;;;;;;;;13.25;12.00;;;;;9.03;49.76;100395.13;5011834;28;45053;-63
2023/03/11 00:31:27;;;;;;;;;12.50;8.50;;;;;9.09;49.97;100398.81;5005932;28;45164;-63
2023/03/11 00:33:56;;;;;;;;;9.00;6.75;;;;;9.09;50.47;100390.81;5007130;28;46042;-64
2023/03/11 00:36:32;;;;;;;;;9.75;9.75;;;;;9.08;49.92;100386.38;5011654;28;45009;-64
2023/03/11 00:39:00;;;;;;;;;16.25;15.00;;;;;9.09;50.60;100401.47;5007609;28;45141;-65
2023/03/11 00:41:27;;;;;;;;;19.50;18.00;;;;;9.07;50.38;100411.22;5004654;28;45165;-65
2023/03/11 00:43:52;;;;;;;;;22.75;19.75;;;;;8.96;50.44;100393.16;5008796;28;46089;-65
2023/03/11 00:46:17;;;;;;;;;31.25;27.50;;;;;9.02;50.92;100411.06;5003377;28;45566;-64
2023/03/11 00:48:43;;;;;;;;;29.00;27.00;;;;;9.02;50.38;100422.66;5007666;28;45868;-65
2023/03/11 00:51:13;;;;;;;;;38.00;33.25;;;;;8.86;51.10;100375.16;5011430;28;45097;-65
2023/03/11 00:53:39;;;;;;;;;36.75;34.00;;;;;8.98;50.26;100388.78;5009767;28;45863;-64
2023/03/11 00:56:15;;;;;;;;;52.50;43.25;;;;;9.03;51.31;100386.25;5011850;28;45599;-64
2023/03/11 00:58:43;;;;;;;;;79.00;63.50;;;;;9.06;51.77;100385.41;4996151;28;45156;-65
2023/03/11 01:01:19;;;;;;;;;36.25;33.50;;;;;9.03;51.26;100389.81;5010055;28;45243;-64
2023/03/11 01:03:45;;;;;;;;;43.75;32.00;;;;;8.99;51.43;100390.59;4993927;28;47343;-66
2023/03/11 01:06:20;;;;;;;;;36.50;31.00;;;;;8.97;51.17;100410.94;5012382;28;45305;-65
2023/03/11 01:09:20;;;;;;;;;23.75;18.00;;;;;9.03;51.12;100412.88;4995044;28;45228;-63
2023/03/11 01:11:54;;;;;;;;;21.50;19.00;;;;;9.03;50.24;100431.53;4962144;28;45241;-64
2023/03/11 01:14:20;;;;;;;;;18.75;16.25;;;;;9.06;50.25;100433.38;5009868;28;45665;-65
2023/03/11 01:16:46;;;;;;;;;47.75;37.75;;;;;9.03;50.04;100419.09;5014894;28;45221;-63
2023/03/11 01:19:11;;;;;;;;;12.00;10.25;;;;;8.80;49.99;100380.28;5009828;28;45867;-64
2023/03/11 01:21:37;;;;;;;;;11.00;6.75;;;;;8.94;50.04;100401.97;5011228;28;46365;-65
2023/03/11 01:24:03;;;;;;;;;10.00;7.50;;;;;8.85;50.67;100391.97;5012965;28;46000;-66
2023/03/11 01:26:28;;;;;;;;;17.75;13.75;;;;;8.88;50.78;100400.06;5010985;28;45425;-65
2023/03/11 01:28:53;;;;;;;;;11.50;10.50;;;;;8.79;49.88;100390.06;5008313;28;45137;-64
2023/03/11 01:31:19;;;;;;;;;5.00;5.00;;;;;8.83;50.79;100391.03;5009950;28;45219;-66
2023/03/11 01:33:44;;;;;;;;;9.75;5.00;;;;;8.70;50.17;100372.91;5013087;28;45658;-64
2023/03/11 01:36:09;;;;;;;;;9.00;5.00;;;;;8.70;50.72;100389.78;5010228;28;45186;-65
2023/03/11 01:38:35;;;;;;;;;13.75;12.50;;;;;8.61;50.79;100403.75;5011184;28;53481;-64
2023/03/11 01:41:00;;;;;;;;;4.75;4.50;;;;;8.66;50.84;100403.84;5010035;28;45264;-66
2023/03/11 01:43:35;;;;;;;;;3.25;3.25;;;;;8.70;50.71;100411.09;4995181;28;48560;-65
2023/03/11 01:46:13;;;;;;;;;8.50;5.50;;;;;8.69;49.90;100405.72;4994144;28;45400;-66
2023/03/11 01:48:39;;;;;;;;;5.50;4.00;;;;;8.63;49.77;100402.03;5008432;28;46153;-65
2023/03/11 01:51:05;;;;;;;;;3.75;2.50;;;;;8.69;50.65;100406.63;5014279;28;45287;-64
2023/03/11 01:53:32;;;;;;;;;4.25;2.75;;;;;8.59;49.91;100384.13;5011174;28;45466;-64
2023/03/11 01:55:57;;;;;;;;;2.75;2.00;;;;;8.75;50.29;100404.13;5013675;28;45153;-63
2023/03/11 01:58:25;;;;;;;;;3.25;2.50;;;;;8.63;50.02;100394.03;5005944;28;44967;-64
2023/03/11 02:00:51;;;;;;;;;3.75;3.75;;;;;8.72;50.18;100420.03;5010203;28;45171;-63
2023/03/11 02:03:23;;;;;;;;;3.75;2.00;;;;;8.73;49.94;100418.25;5011389;28;46390;-64
2023/03/11 02:05:50;;;;;;;;;2.25;2.25;;;;;8.79;50.36;100426.41;5010247;28;45228;-64
2023/03/11 02:08:15;;;;;;;;;3.50;2.25;;;;;8.83;49.76;100426.56;5010714;28;45277;-63
2023/03/11 02:10:42;;;;;;;;;2.25;2.00;;;;;8.75;50.54;100417.44;5000807;28;44963;-66
2023/03/11 02:13:09;;;;;;;;;1.25;1.25;;;;;8.77;50.83;100429.03;4995692;28;47717;-63
2023/03/11 02:15:35;;;;;;;;;2.00;2.00;;;;;8.77;50.05;100433.47;5010395;28;45105;-65
2023/03/11 02:18:04;;;;;;;;;6.50;3.00;;;;;8.75;50.42;100428.09;5013166;28;45013;-66
2023/03/11 02:20:53;;;;;;;;;5.25;2.50;;;;;8.53;51.10;100381.31;5012699;28;45502;-63
2023/03/11 02:23:23;;;;;;;;;1.00;1.00;;;;;8.69;51.06;100411.03;5011898;28;45388;-64
2023/03/11 02:26:10;;;;;;;;;3.25;2.00;;;;;8.78;50.84;100421.97;5011363;28;45305;-64
2023/03/11 02:28:39;;;;;;;;;2.75;2.00;;;;;8.77;51.21;100414.81;5010225;28;45231;-64
2023/03/11 02:31:05;;;;;;;;;3.75;2.50;;;;;8.75;51.24;100414.78;5012309;28;45553;-62
2023/03/11 02:33:33;;;;;;;;;2.50;2.50;;;;;8.75;51.84;100427.22;4996047;28;45611;-63
2023/03/11 02:35:58;;;;;;;;;4.25;4.25;;;;;8.72;51.62;100422.69;4995732;28;45461;-64
2023/03/11 02:38:24;;;;;;;;;9.50;3.00;;;;;8.65;52.25;100408.28;4994692;28;45499;-64
2023/03/11 02:40:58;;;;;;;;;3.25;3.25;;;;;8.71;51.72;100420.91;4995221;28;45453;-63
2023/03/11 02:43:44;;;;;;;;;4.00;4.00;;;;;8.71;52.46;100415.56;4988865;28;45855;-62
2023/03/11 02:46:11;;;;;;;;;3.50;3.50;;;;;8.71;52.19;100398.66;4992785;28;45920;-63
2023/03/11 02:48:38;;;;;;;;;5.00;4.00;;;;;8.73;53.19;100386.28;4997871;28;45431;-66
2023/03/11 02:51:04;;;;;;;;;4.25;3.75;;;;;8.73;52.15;100394.28;5002868;28;45514;-65
2023/03/11 02:53:34;;;;;;;;;6.00;2.75;;;;;8.67;52.66;100397.69;5003911;28;45487;-64
2023/03/11 02:55:59;;;;;;;;;4.00;4.00;;;;;8.65;52.53;100394.97;4998038;28;45321;-63
2023/03/11 02:58:25;;;;;;;;;4.50;4.50;;;;;8.62;53.39;100394.00;4995262;28;45470;-65
2023/03/11 03:00:50;;;;;;;;;5.25;4.00;;;;;8.44;52.80;100370.41;4994808;28;45567;-64
2023/03/11 03:03:15;;;;;;;;;4.00;3.50;;;;;8.55;53.12;100394.69;4997397;28;46549;-64
2023/03/11 03:05:41;;;;;;;;;5.25;3.00;;;;;8.42;53.35;100390.72;4994439;28;45447;-65
2023/03/11 03:08:06;;;;;;;;;5.50;3.00;;;;;8.43;52.62;100387.22;4995659;28;45347;-66
2023/03/11 03:10:31;;;;;;;;;5.00;2.00;;;;;8.58;52.88;100406.31;4979494;28;45483;-65
2023/03/11 03:12:57;;;;;;;;;3.50;3.50;;;;;8.55;53.12;100402.69;4993696;28;45273;-64
2023/03/11 03:15:22;;;;;;;;;5.00;3.00;;;;;8.55;52.18;100400.00;4994816;28;45518;-64
2023/03/11 03:17:50;;;;;;;;;3.75;2.00;;;;;8.59;52.75;100393.91;4994873;28;45509;-63
2023/03/11 03:20:16;;;;;;;;;4.00;4.00;;;;;8.63;51.81;100401.13;4982697;28;45737;-65
2023/03/11 03:22:42;;;;;;;;;2.75;2.75;;;;;8.53;52.89;100397.31;4994497;28;46552;-63
2023/03/11 03:25:08;;;;;;;;;4.75;3.00;;;;;8.61;52.79;100400.16;4994575;28;45520;-64
2023/03/11 03:27:34;;;;;;;;;3.00;3.00;;;;;8.62;52.39;100391.31;4995301;28;45482;-64
2023/03/11 03:30:00;;;;;;;;;5.25;2.25;;;;;8.55;52.96;100360.97;4993534;28;45431;-63
2023/03/11 03:32:25;;;;;;;;;2.00;2.00;;;;;8.60;53.24;100375.31;4994706;28;47372;-63
2023/03/11 03:34:57;;;;;;;;;2.00;1.75;;;;;8.52;52.03;100370.63;4994264;28;45779;-64
2023/03/11 03:37:22;;;;;;;;;1.25;1.25;;;;;8.50;52.39;100386.56;4982925;28;45570;-65
2023/03/11 03:39:47;;;;;;;;;1.25;1.25;;;;;8.43;52.49;100381.91;4994929;28;45470;-65
2023/03/11 03:42:12;;;;;;;;;2.00;2.00;;;;;8.39;53.29;100374.66;4994238;28;47412;-64
2023/03/11 03:44:38;;;;;;;;;3.50;2.75;;;;;8.43;52.54;100371.25;4994809;28;45637;-66
2023/03/11 03:47:03;;;;;;;;;1.25;1.25;;;;;8.33;53.40;100361.16;4992738;28;45580;-63
2023/03/11 03:49:28;;;;;;;;;5.50;2.00;;;;;8.43;53.62;100387.22;4994820;28;45388;-63
2023/03/11 03:51:54;;;;;;;;;3.00;3.00;;;;;8.42;53.33;100385.41;4993964;28;51819;-64
2023/03/11 03:54:19;;;;;;;;;6.75;3.00;;;;;8.28;53.57;100377.00;4994568;28;45563;-63
2023/03/11 03:56:44;;;;;;;;;3.50;3.50;;;;;8.38;53.31;100388.81;4995124;28;45496;-64
2023/03/11 03:59:10;;;;;;;;;3.00;2.75;;;;;8.41;53.30;100399.56;4995880;28;45467;-64
2023/03/11 04:01:35;;;;;;;;;5.75;4.00;;;;;8.36;53.93;100402.06;4982954;28;47358;-66
2023/03/11 04:04:00;;;;;;;;;2.75;2.75;;;;;8.30;53.79;100386.84;4992712;28;45433;-64
2023/03/11 04:06:26;;;;;;;;;5.00;2.50;;;;;8.44;54.25;100389.03;4993729;28;46047;-64
2023/03/11 04:08:53;;;;;;;;;3.75;3.00;;;;;8.36;53.55;100412.72;4981953;28;45511;-65
2023/03/11 04:11:19;;;;;;;;;4.00;3.25;;;;;8.11;53.77;100374.72;4981185;28;46388;-65
2023/03/11 04:13:45;;;;;;;;;9.00;5.00;;;;;8.41;53.97;100415.53;4995004;28;46570;-64
2023/03/11 04:16:17;;;;;;;;;6.25;5.50;;;;;8.42;53.90;100412.03;4995163;28;45511;-64
2023/03/11 04:18:42;;;;;;;;;5.25;5.25;;;;;8.44;53.52;100407.66;4995627;28;45619;-63
2023/03/11 04:21:07;;;;;;;;;7.75;5.75;;;;;8.41;54.71;100403.09;4996691;28;46473;-63
2023/03/11 04:23:33;;;;;;;;;7.75;7.75;;;;;8.32;54.45;100400.19;4978330;28;45354;-64
2023/03/11 04:25:59;;;;;;;;;9.75;6.00;;;;;8.29;54.08;100381.47;4995944;28;45411;-63
2023/03/11 04:28:25;;;;;;;;;8.75;8.75;;;;;8.34;53.97;100394.91;4995590;28;45777;-64
2023/03/11 04:30:53;;;;;;;;;8.00;8.00;;;;;8.23;54.77;100387.53;4976113;28;48220;-68
2023/03/11 04:33:19;;;;;;;;;9.00;6.25;;;;;8.13;55.05;100401.38;4993008;28;46130;-63
2023/03/11 04:35:44;;;;;;;;;12.75;6.00;;;;;8.17;54.90;100416.59;4993658;28;45773;-64
2023/03/11 04:38:09;;;;;;;;;4.00;4.00;;;;;8.12;54.72;100421.78;4993476;28;45585;-63
2023/03/11 04:40:36;;;;;;;;;6.75;5.00;;;;;8.12;54.71;100423.56;4994035;28;46565;-63
2023/03/11 04:43:02;;;;;;;;;8.25;5.75;;;;;8.07;55.23;100406.53;4992537;28;45536;-64
2023/03/11 04:45:27;;;;;;;;;8.00;6.00;;;;;8.16;54.46;100432.53;4994040;28;45507;-63
2023/03/11 04:47:53;;;;;;;;;9.00;5.00;;;;;8.15;54.65;100431.63;4995358;28;45591;-65
2023/03/11 04:50:18;;;;;;;;;3.00;1.50;;;;;8.17;54.34;100432.56;4993105;28;46698;-64
2023/03/11 04:52:44;;;;;;;;;4.00;3.00;;;;;8.09;54.67;100423.44;4992668;28;45531;-64
2023/03/11 04:55:10;;;;;;;;;10.00;4.25;;;;;8.07;55.38;100425.16;4993970;28;45544;-64
2023/03/11 04:57:35;;;;;;;;;7.25;5.50;;;;;8.09;54.88;100427.00;4977376;28;45558;-63
2023/03/11 05:00:07;;;;;;;;;9.75;7.00;;;;;8.08;54.64;100426.94;4976235;28;45542;-63
2023/03/11 05:02:33;;;;;;;;;8.75;5.25;;;;;8.07;55.59;100436.69;4993283;28;45658;-65
2023/03/11 05:05:00;;;;;;;;;6.25;5.00;;;;;8.03;55.10;100450.75;4993954;28;45602;-63
2023/03/11 05:07:26;;;;;;;;;4.50;4.50;;;;;7.98;54.45;100432.84;4992871;28;45536;-63
2023/03/11 05:09:51;;;;;;;;;6.00;4.00;;;;;7.89;55.07;100434.34;4993210;28;46872;-63
2023/03/11 05:12:16;;;;;;;;;9.00;4.25;;;;;7.86;55.09;100433.38;4996608;28;45431;-63
2023/03/11 05:14:42;;;;;;;;;5.00;4.00;;;;;7.88;54.86;100443.19;4997821;28;45412;-63
2023/03/11 05:17:08;;;;;;;;;3.00;3.00;;;;;7.85;54.43;100445.75;4997992;28;45473;-64
2023/03/11 05:19:34;;;;;;;;;5.00;5.00;;;;;7.87;55.08;100457.34;4998325;28;45488;-64
2023/03/11 05:22:01;;;;;;;;;3.75;3.75;;;;;7.79;55.78;100464.19;4994021;28;45467;-65
2023/03/11 05:24:27;;;;;;;;;6.00;4.00;;;;;7.72;55.22;100446.19;4991808;28;45688;-64
2023/03/11 05:26:53;;;;;;;;;8.25;6.25;;;;;7.68;55.41;100429.25;4981205;28;45894;-64
2023/03/11 05:29:18;;;;;;;;;6.25;4.25;;;;;7.78;56.08;100449.06;4979733;28;46439;-66
2023/03/11 05:31:44;;;;;;;;;11.75;5.00;;;;;7.78;55.38;100449.06;4994719;28;45545;-64
2023/03/11 05:34:09;;;;;;;;;8.75;6.75;;;;;7.83;55.58;100451.88;4994126;28;45600;-64
2023/03/11 05:36:34;;;;;;;;;4.75;4.75;;;;;7.84;55.97;100454.59;4993251;28;45500;-63
2023/03/11 05:39:00;;;;;;;;;8.75;5.75;;;;;7.65;56.06;100428.25;4993688;28;46327;-65
2023/03/11 05:41:25;;;;;;;;;6.00;4.00;;;;;7.79;56.00;100453.53;4994638;28;45431;-64
2023/03/11 05:43:50;;;;;;;;;6.25;4.25;;;;;7.74;55.56;100463.13;4994319;28;45292;-66
2023/03/11 05:46:16;;;;;;;;;6.25;6.25;;;;;7.63;56.46;100469.84;4988268;28;45367;-63
2023/03/11 05:48:41;;;;;;;;;4.25;4.25;;;;;7.57;56.61;100482.06;4992511;28;46013;-63
2023/03/11 05:51:08;;;;;;;;;11.00;4.00;;;;;7.52;57.33;100481.00;4991574;28;45499;-65
2023/03/11 05:53:33;;;;;;;;;6.50;5.00;;;;;7.44;56.56;100466.56;4985376;28;45494;-64
2023/03/11 05:55:59;;;;;;;;;7.75;7.00;;;;;7.59;56.29;100489.19;5012696;28;44991;-64
2023/03/11 05:58:26;;;;;;;;;2.25;1.25;;;;;7.61;56.45;100483.06;4994905;28;47112;-64
2023/03/11 06:00:52;;;;;;;;;6.75;4.75;;;;;7.62;56.89;100470.69;5013573;28;44951;-64
2023/03/11 06:03:17;;;;;;;;;4.50;3.25;;;;;7.68;56.54;100471.78;4995184;28;45180;-63
2023/03/11 06:05:47;;;;;;;;;4.25;4.25;;;;;7.68;56.42;100474.44;5010451;28;45177;-65
2023/03/11 06:08:13;;;;;;;;;5.25;4.50;;;;;7.69;56.25;100470.94;5010456;28;47966;-63
2023/03/11 06:10:38;;;;;;;;;5.25;2.75;;;;;7.64;56.03;100450.34;5009390;28;45261;-64
2023/03/11 06:13:04;;;;;;;;;4.00;4.00;;;;;7.74;55.36;100489.72;5010509;28;45463;-69
2023/03/11 06:15:31;;;;;;;;;4.00;4.00;;;;;7.70;55.93;100487.78;5013323;28;45169;-70
2023/03/11 06:17:56;;;;;;;;;5.00;4.00;;;;;7.73;55.91;100482.56;5008840;28;45942;-66
2023/03/11 06:20:22;;;;;;;;;5.25;2.75;;;;;7.76;56.00;100474.72;5002655;28;45378;-65
2023/03/11 06:22:48;;;;;;;;;6.25;5.00;;;;;7.81;56.00;100477.53;4996896;28;45543;-67
2023/03/11 06:25:14;;;;;;;;;5.25;3.75;;;;;7.66;55.23;100468.19;4987865;28;45587;-68
2023/03/11 06:27:39;;;;;;;;;5.00;5.00;;;;;7.85;56.65;100493.66;4999120;28;46249;-68
2023/03/11 06:30:05;;;;;;;;;9.25;5.25;;;;;7.68;56.62;100478.88;4995716;28;45382;-70
2023/03/11 06:32:33;;;;;;;;;6.50;4.00;;;;;7.71;56.98;100474.53;4994476;28;45477;-70
2023/03/11 06:34:58;;;;;;;;;5.25;5.25;;;;;7.70;55.86;100478.03;4993273;28;45701;-71
2023/03/11 06:37:24;;;;;;;;;4.50;4.50;;;;;7.60;56.43;100473.28;4994355;28;46376;-69
2023/03/11 06:39:53;;;;;;;;;5.00;4.00;;;;;7.65;56.17;100484.06;4991789;28;45517;-66
2023/03/11 06:42:19;;;;;;;;;7.00;7.00;;;;;7.65;55.68;100487.63;4994749;28;45771;-72
2023/03/11 06:44:47;;;;;;;;;6.50;4.25;;;;;7.68;56.48;100494.81;4999157;28;45538;-67
2023/03/11 06:47:12;;;;;;;;;8.00;5.75;;;;;7.73;56.04;100496.75;4977574;28;47296;-67
2023/03/11 06:49:41;;;;;;;;;5.00;3.75;;;;;7.79;56.73;100492.50;4995488;28;45593;-70
2023/03/11 06:52:07;;;;;;;;;5.25;5.25;;;;;7.81;56.32;100475.75;4982793;28;45536;-69
2023/03/11 06:54:33;;;;;;;;;4.25;4.25;;;;;7.88;56.36;100479.53;4996977;28;45671;-65
2023/03/11 06:56:58;;;;;;;;;16.50;16.25;;;;;7.65;56.27;100446.84;4997094;28;45465;-69
2023/03/11 06:59:24;;;;;;;;;5.25;5.00;;;;;7.85;55.88;100477.69;4999360;28;45498;-66
2023/03/11 07:01:49;;;;;;;;;7.00;7.00;;;;;7.97;55.57;100493.13;5000626;28;45471;-66
2023/03/11 07:04:14;;;;;;;;;5.00;4.00;;;;;8.00;56.00;100498.56;4995646;28;45541;-65
2023/03/11 07:06:40;;;;;;;;;5.75;5.75;;;;;7.91;55.56;100483.19;4997404;28;45389;-65
2023/03/11 07:09:06;;;;;;;;;5.00;5.00;;;;;8.03;55.68;100509.28;4996298;28;45439;-69
2023/03/11 07:11:31;;;;;;;;;8.00;5.00;;;;;8.02;56.76;100518.13;4996344;28;45520;-66
2023/03/11 07:13:57;;;;;;;;;8.50;8.00;;;;;8.12;56.17;100524.66;4997501;28;45549;-68
2023/03/11 07:16:27;;;;;;;;;15.50;12.50;;;;;8.14;55.53;100530.94;4997247;28;46424;-66
2023/03/11 07:18:57;;;;;;;;;10.25;8.75;;;;;8.09;55.55;100514.81;4997055;28;45359;-69
2023/03/11 07:21:24;;;;;;;;;12.25;9.25;;;;;8.18;55.88;100513.28;4999156;28;45404;-67
2023/03/11 07:24:00;;;;;;;;;9.00;5.00;;;;;8.26;55.38;100536.63;4983943;28;45458;-68
2023/03/11 07:26:27;;;;;;;;;5.75;5.50;;;;;8.14;56.03;100533.59;4997708;28;46365;-67
2023/03/11 07:28:54;;;;;;;;;8.50;5.75;;;;;8.03;56.31;100535.00;4990093;28;45351;-65
2023/03/11 07:31:31;;;;;;;;;8.00;6.75;;;;;7.91;54.72;100544.38;4973930;28;45427;-66
2023/03/11 07:33:58;;;;;;;;;4.00;4.00;;;;;7.87;55.14;100541.53;4991621;28;45534;-65
2023/03/11 07:36:25;;;;;;;;;5.50;5.00;;;;;7.72;56.22;100513.59;4995383;28;46385;-67
2023/03/11 07:39:03;;;;;;;;;7.25;5.75;;;;;7.99;55.46;100552.59;4994092;28;45327;-65
2023/03/11 07:41:30;;;;;;;;;8.50;8.50;;;;;7.97;55.19;100556.06;4995435;28;45393;-66
2023/03/11 07:43:58;;;;;;;;;7.75;7.75;;;;;8.09;55.63;100570.69;4995825;28;45518;-66
2023/03/11 07:46:25;;;;;;;;;8.00;5.50;;;;;8.18;54.35;100562.09;4995628;28;46767;-65
2023/03/11 07:48:52;;;;;;;;;8.50;8.50;;;;;8.17;54.16;100557.66;4996156;28;45373;-65
2023/03/11 07:51:26;;;;;;;;;9.25;6.75;;;;;8.24;53.96;100561.41;4996140;28;45488;-64
2023/03/11 07:53:53;;;;;;;;;3.75;2.50;;;;;8.32;53.21;100553.69;4982259;28;45551;-67
2023/03/11 07:56:21;;;;;;;;;4.25;4.00;;;;;8.40;53.18;100553.06;4994779;28;46536;-66
2023/03/11 07:58:47;;;;;;;;;7.50;5.25;;;;;8.46;52.60;100547.97;4995657;28;45372;-66
2023/03/11 08:01:20;;;;;;;;;9.50;8.75;;;;;8.53;52.27;100546.41;4995653;28;45399;-65
2023/03/11 08:03:48;;;;;;;;;11.75;8.75;;;;;8.61;52.01;100544.88;4996354;28;45556;-64
2023/03/11 08:06:16;;;;;;;;;10.00;5.00;;;;;8.60;52.27;100559.03;4997197;28;45504;-66
2023/03/11 08:08:42;;;;;;;;;5.25;4.00;;;;;8.69;52.58;100582.38;4996505;28;45446;-66
2023/03/11 08:11:09;;;;;;;;;10.75;7.75;;;;;8.79;52.48;100583.59;4988015;28;45593;-66
2023/03/11 08:13:34;;;;;;;;;4.75;3.00;;;;;8.87;52.63;100590.03;4998144;28;45447;-65
2023/03/11 08:16:03;;;;;;;;;8.00;6.25;;;;;8.77;51.73;100578.19;4997408;28;45738;-65
2023/03/11 08:18:29;;;;;;;;;7.00;5.00;;;;;8.76;52.16;100588.81;4997595;28;45546;-66
2023/03/11 08:20:55;;;;;;;;;6.00;5.00;;;;;8.67;51.52;100562.81;4988411;28;45545;-66
2023/03/11 08:23:20;;;;;;;;;11.00;7.25;;;;;8.79;52.22;100586.25;4995218;28;45456;-67
2023/03/11 08:25:46;;;;;;;;;5.25;4.00;;;;;8.80;52.12;100580.97;4993631;28;45632;-66
2023/03/11 08:28:11;;;;;;;;;4.25;4.00;;;;;8.80;51.68;100557.00;4994946;28;45431;-66
2023/03/11 08:30:37;;;;;;;;;3.75;3.75;;;;;8.91;51.70;100573.31;4995851;28;45466;-67
2023/03/11 08:33:02;;;;;;;;;13.75;11.25;;;;;8.83;50.74;100545.53;4994336;28;45557;-66
2023/03/11 08:35:28;;;;;;;;;3.75;3.75;;;;;8.89;50.97;100567.00;4995399;28;46258;-67
2023/03/11 08:37:53;;;;;;;;;7.00;6.00;;;;;8.67;51.37;100562.81;4994777;28;45306;-66
2023/03/11 08:40:19;;;;;;;;;5.00;3.00;;;;;8.77;52.16;100574.66;4994761;28;45358;-67
2023/03/11 08:42:44;;;;;;;;;3.00;3.00;;;;;8.81;51.16;100568.53;4995221;28;45467;-67
2023/03/11 08:45:10;;;;;;;;;5.75;3.25;;;;;8.70;51.17;100565.56;4979368;28;48304;-66
2023/03/11 08:47:37;;;;;;;;;13.25;10.25;;;;;8.54;51.32;100549.97;4990160;28;45321;-67
2023/03/11 08:50:12;;;;;;;;;3.50;3.50;;;;;8.44;51.51;100568.28;4976414;28;45474;-67
2023/03/11 08:52:37;;;;;;;;;5.75;4.50;;;;;8.27;52.05;100558.84;4996655;28;45459;-68
2023/03/11 08:55:04;;;;;;;;;7.00;4.25;;;;;8.47;51.90;100589.69;4981826;28;47300;-68
2023/03/11 08:57:30;;;;;;;;;7.00;4.50;;;;;8.55;51.69;100594.38;4995270;28;45210;-67
2023/03/11 08:59:57;;;;;;;;;4.00;4.00;;;;;8.49;51.54;100595.97;4995659;28;45636;-67
2023/03/11 09:02:23;;;;;;;;;6.00;4.75;;;;;8.35;52.83;100572.38;4992531;28;45585;-67
2023/03/11 09:04:49;;;;;;;;;8.25;5.75;;;;;8.43;51.90;100578.91;4994750;28;46399;-69
2023/03/11 09:07:14;;;;;;;;;11.00;9.00;;;;;8.63;51.35;100590.22;4978538;28;56199;-67
2023/03/11 09:09:39;;;;;;;;;6.75;6.75;;;;;8.71;51.81;100577.13;4981239;28;45534;-67
2023/03/11 09:12:06;;;;;;;;;4.25;4.25;;;;;8.80;51.24;100586.28;4995668;28;45751;-70
2023/03/11 09:14:32;;;;;;;;;4.25;4.00;;;;;8.73;51.59;100575.41;4982191;28;47922;-67
2023/03/11 09:16:57;;;;;;;;;9.50;4.25;;;;;8.87;50.97;100587.38;4995987;28;45522;-68
2023/03/11 09:19:23;;;;;;;;;9.75;6.50;;;;;8.66;50.59;100580.56;4996721;28;45531;-67
2023/03/11 09:21:48;;;;;;;;;9.25;8.25;;;;;8.65;51.99;100589.38;4995566;28;45508;-69
2023/03/11 09:24:13;;;;;;;;;6.00;6.00;;;;;8.54;52.13;100580.16;4994334;28;46550;-67
2023/03/11 09:26:39;;;;;;;;;6.25;5.00;;;;;8.49;52.27;100581.75;4996025;28;45470;-67
2023/03/11 09:29:04;;;;;;;;;9.25;6.00;;;;;8.46;51.74;100585.25;4999684;28;47387;-67
2023/03/11 09:31:30;;;;;;;;;4.75;4.25;;;;;8.53;51.16;100577.44;4999188;28;45574;-67
2023/03/11 09:33:55;;;;;;;;;7.75;7.75;;;;;8.69;51.19;100582.38;4999942;28;46599;-69
2023/03/11 09:36:21;;;;;;;;;8.25;6.25;;;;;8.88;50.59;100582.97;4989224;28;45391;-67
2023/03/11 09:38:47;;;;;;;;;23.25;16.50;;;;;8.99;51.03;100577.13;4980907;28;45510;-68
2023/03/11 09:41:16;;;;;;;;;10.25;7.25;;;;;9.19;49.95;100584.81;4981530;28;45945;-68
2023/03/11 09:44:00;;;;;;;;;10.50;7.00;;;;;9.39;49.43;100582.72;4997156;28;45519;-67
2023/03/11 09:46:42;;;;;;;;;4.75;4.50;;;;;9.55;48.93;100573.34;4997692;28;45532;-68
2023/03/11 09:49:44;;;;;;;;;4.75;4.75;;;;;9.50;49.15;100575.91;4997603;28;45395;-67
2023/03/11 09:52:11;;;;;;;;;8.75;5.00;;;;;9.53;48.88;100578.63;4997748;28;45706;-67
2023/03/11 09:54:44;;;;;;;;;6.00;5.00;;;;;9.49;49.09;100581.22;4981739;28;46922;-67
2023/03/11 09:57:17;;;;;;;;;7.50;5.50;;;;;9.59;48.83;100585.94;4996399;28;45522;-67
2023/03/11 09:59:44;;;;;;;;;4.00;3.75;;;;;9.71;47.80;100575.56;4980701;28;46588;-67
2023/03/11 10:02:16;;;;;;;;;4.25;4.25;;;;;9.78;48.13;100572.22;4997877;28;45638;-68
2023/03/11 10:04:45;;;;;;;;;10.25;6.25;;;;;9.92;48.06;100579.69;4997428;28;46570;-69
2023/03/11 10:07:20;;;;;;;;;8.50;7.00;;;;;9.84;47.00;100591.94;4997083;28;45272;-68
2023/03/11 10:09:57;;;;;;;;;12.50;8.00;;;;;9.77;48.32;100596.19;4991801;28;45394;-70
2023/03/11 10:12:53;;;;;;;;;6.25;5.25;;;;;9.87;47.92;100597.34;4996839;28;45576;-68
2023/03/11 10:15:38;;;;;;;;;5.75;5.25;;;;;10.04;48.29;100601.34;4997150;28;46365;-67
2023/03/11 10:18:21;;;;;;;;;18.00;16.75;;;;;10.14;46.70;100606.06;4997651;28;45476;-68
2023/03/11 10:20:56;;;;;;;;;7.75;6.25;;;;;10.16;45.93;100608.78;4995182;28;45469;-68
2023/03/11 10:23:52;;;;;;;;;6.00;6.00;;;;;10.13;46.66;100611.38;4997490;28;45575;-67
2023/03/11 10:26:36;;;;;;;;;9.25;7.25;;;;;10.25;46.61;100610.78;4998327;28;46647;-68
2023/03/11 10:29:29;;;;;;;;;6.50;5.75;;;;;10.21;46.22;100582.19;4989413;28;45517;-68
2023/03/11 10:32:12;;;;;;;;;4.00;4.00;;;;;10.46;45.86;100594.41;4997413;28;45606;-68
2023/03/11 10:34:57;;;;;;;;;4.50;3.00;;;;;10.56;44.73;100587.53;4998228;28;45512;-66
2023/03/11 10:37:26;;;;;;;;;6.50;4.00;;;;;10.75;44.03;100602.22;4985574;28;46597;-66
2023/03/11 10:39:52;;;;;;;;;4.75;3.50;;;;;10.63;44.82;100595.72;4995503;28;45474;-67
2023/03/11 10:42:28;;;;;;;;;6.00;5.00;;;;;10.58;44.63;100586.72;4998258;28;45449;-67
2023/03/11 10:44:53;;;;;;;;;12.25;7.25;;;;;10.25;44.89;100526.25;4997533;28;45479;-67
2023/03/11 10:47:24;;;;;;;;;6.00;4.50;;;;;10.46;44.71;100555.28;4998254;28;45395;-68
2023/03/11 10:49:51;;;;;;;;;4.00;4.00;;;;;10.58;44.59;100601.84;4988493;28;45671;-66
2023/03/11 10:52:17;;;;;;;;;20.75;19.25;;;;;10.59;44.33;100615.25;4991053;28;45515;-65
2023/03/11 10:54:47;;;;;;;;;5.00;4.00;;;;;10.51;45.08;100603.47;4996947;28;45440;-68
2023/03/11 10:57:33;;;;;;;;;8.25;8.25;;;;;10.50;45.01;100601.66;4996859;28;45450;-68
2023/03/11 11:00:08;;;;;;;;;6.00;4.00;;;;;10.62;44.53;100596.59;4993644;28;45568;-66
2023/03/11 11:02:50;;;;;;;;;5.00;4.00;;;;;10.78;44.42;100600.53;4996850;28;45298;-68
2023/03/11 11:05:21;;;;;;;;;9.75;7.50;;;;;10.90;43.72;100582.97;4998521;28;45458;-67
2023/03/11 11:07:48;;;;;;;;;5.50;5.50;;;;;10.80;44.03;100589.88;4998687;28;45316;-67
2023/03/11 11:10:18;;;;;;;;;16.25;13.25;;;;;10.89;44.53;100590.09;5001448;28;45361;-67
2023/03/11 11:13:01;;;;;;;;;5.00;4.00;;;;;10.97;43.32;100598.25;5000455;28;45316;-68
2023/03/11 11:15:33;;;;;;;;;5.00;5.00;;;;;10.97;43.89;100590.25;4983841;28;45476;-70
2023/03/11 11:18:19;;;;;;;;;5.00;5.00;;;;;10.95;43.92;100583.97;4998135;28;45441;-69
2023/03/11 11:21:00;;;;;;;;;3.75;3.75;;;;;11.15;43.40;100592.41;4996939;28;45540;-65
2023/03/11 11:23:30;;;;;;;;;6.00;5.00;;;;;11.27;43.71;100576.66;4999033;28;45545;-68
2023/03/11 11:26:03;;;;;;;;;3.75;3.75;;;;;11.44;43.21;100563.59;4999847;28;45314;-69
2023/03/11 11:28:30;;;;;;;;;11.00;7.25;;;;;11.60;42.90;100579.09;4977940;28;47346;-69
2023/03/11 11:30:57;;;;;;;;;17.00;10.75;;;;;11.76;41.63;100577.63;4997462;28;45438;-68
2023/03/11 11:33:50;;;;;;;;;6.75;6.25;;;;;11.82;42.66;100575.94;4996970;28;45431;-68
2023/03/11 11:36:17;;;;;;;;;5.75;4.50;;;;;11.93;42.15;100574.38;4997442;28;45637;-65